createdAt,value
2023-01-09T00:00:14.927Z,97892.56
2023-01-09T00:02:42.286Z,97888.03
2023-01-09T00:05:11.762Z,97885.19
2023-01-09T00:07:38.823Z,97878.09
2023-01-09T00:10:05.627Z,97866.34
2023-01-09T00:12:32.593Z,97861.56
2023-01-09T00:14:59.619Z,97856.25
2023-01-09T00:17:27.417Z,97853.91
2023-01-09T00:19:54.289Z,97857.06
2023-01-09T00:22:21.132Z,97853.13
2023-01-09T00:24:48.025Z,97850.50
2023-01-09T00:27:14.828Z,97846.91
2023-01-09T00:29:41.757Z,97837.06
2023-01-09T00:32:08.574Z,97847.44
2023-01-09T00:34:35.473Z,97843.53
2023-01-09T00:37:03.707Z,97843.75
2023-01-09T00:39:30.624Z,97843.94
2023-01-09T00:41:57.734Z,97845.59
2023-01-09T00:44:24.576Z,97846.69
2023-01-09T00:46:51.682Z,97845.88
2023-01-09T00:49:18.500Z,97830.22
2023-01-09T00:51:45.767Z,97832.53
2023-01-09T00:54:12.804Z,97815.97
2023-01-09T00:56:39.624Z,97809.91
2023-01-09T00:59:06.435Z,97813.50
2023-01-09T01:01:33.605Z,97808.75
2023-01-09T01:04:00.644Z,97805.47
2023-01-09T01:06:27.515Z,97792.69
2023-01-09T01:08:57.063Z,97781.94
2023-01-09T01:11:24.042Z,97786.06
2023-01-09T01:13:51.096Z,97780.25
2023-01-09T01:16:18.291Z,97779.81
2023-01-09T01:18:45.645Z,97783.16
2023-01-09T01:21:12.501Z,97782.81
2023-01-09T01:23:39.339Z,97777.94
2023-01-09T01:26:06.174Z,97773.81
2023-01-09T01:28:32.977Z,97767.00
2023-01-09T01:30:59.994Z,97769.34
2023-01-09T01:33:26.856Z,97772.47
2023-01-09T01:35:53.675Z,97765.72
2023-01-09T01:38:21.556Z,97761.53
2023-01-09T01:40:50.512Z,97753.19
2023-01-09T01:43:17.466Z,97745.28
2023-01-09T01:45:44.365Z,97756.88
2023-01-09T01:48:11.611Z,97755.47
2023-01-09T01:50:38.604Z,97740.66
2023-01-09T01:53:05.663Z,97739.47
2023-01-09T01:55:32.508Z,97734.66
2023-01-09T01:57:59.449Z,97728.25
2023-01-09T02:00:26.873Z,97717.91
2023-01-09T02:02:53.741Z,97705.66
2023-01-09T02:05:20.874Z,97714.81
2023-01-09T02:07:48.461Z,97699.31
2023-01-09T02:10:15.682Z,97688.88
2023-01-09T02:12:42.606Z,97693.94
2023-01-09T02:15:09.496Z,97695.78
2023-01-09T02:17:36.551Z,97682.22
2023-01-09T02:20:03.498Z,97675.22
2023-01-09T02:22:30.406Z,97672.19
2023-01-09T02:24:58.698Z,97663.09
2023-01-09T02:27:25.561Z,97662.34
2023-01-09T02:29:52.644Z,97650.13
2023-01-09T02:32:19.500Z,97633.63
2023-01-09T02:34:46.674Z,97638.66
2023-01-09T02:37:13.575Z,97622.13
2023-01-09T02:39:40.603Z,97623.63
2023-01-09T02:42:07.509Z,97613.50
2023-01-09T02:44:34.504Z,97614.94
2023-01-09T02:47:02.227Z,97610.56
2023-01-09T02:49:29.147Z,97621.69
2023-01-09T02:51:56.041Z,97626.97
2023-01-09T02:54:25.187Z,97623.72
2023-01-09T02:56:52.041Z,97625.13
2023-01-09T02:59:18.909Z,97621.09
2023-01-09T03:01:46.113Z,97622.88
2023-01-09T03:04:13.142Z,97608.88
2023-01-09T03:06:39.983Z,97607.22
2023-01-09T03:09:07.145Z,97614.94
2023-01-09T03:11:34.208Z,97603.81
2023-01-09T03:14:01.138Z,97608.34
2023-01-09T03:16:28.412Z,97610.22
2023-01-09T03:18:55.397Z,97600.78
2023-01-09T03:21:22.335Z,97605.34
2023-01-09T03:23:49.209Z,97597.16
2023-01-09T03:26:16.157Z,97594.72
2023-01-09T03:28:43.511Z,97603.13
2023-01-09T03:31:10.606Z,97593.53
2023-01-09T03:33:37.489Z,97569.38
2023-01-09T03:36:05.532Z,97561.44
2023-01-09T03:38:32.489Z,97566.75
2023-01-09T03:40:59.482Z,97625.72
2023-01-09T03:43:26.481Z,97603.19
2023-01-09T03:45:53.292Z,97602.31
2023-01-09T03:48:20.542Z,97595.16
2023-01-09T03:50:48.362Z,97596.53
2023-01-09T03:53:15.221Z,97576.16
2023-01-09T03:55:42.095Z,97573.09
2023-01-09T03:58:08.957Z,97570.72
2023-01-09T04:00:35.976Z,97568.41
2023-01-09T04:03:03.016Z,97564.34
2023-01-09T04:05:29.988Z,97565.47
2023-01-09T04:07:56.788Z,97555.41
2023-01-09T04:10:23.653Z,97544.94
2023-01-09T04:12:50.491Z,97539.53
2023-01-09T04:15:17.358Z,97530.47
2023-01-09T04:17:44.642Z,97526.00
2023-01-09T04:20:11.505Z,97535.16
2023-01-09T04:22:39.040Z,97537.69
2023-01-09T04:25:06.020Z,97525.56
2023-01-09T04:27:32.885Z,97521.53
2023-01-09T04:29:59.803Z,97529.22
2023-01-09T04:32:26.886Z,97514.41
2023-01-09T04:34:54.758Z,97515.09
2023-01-09T04:37:21.575Z,97515.13
2023-01-09T04:39:48.501Z,97522.31
2023-01-09T04:42:15.566Z,97512.78
2023-01-09T04:44:42.568Z,97512.22
2023-01-09T04:47:09.732Z,97512.25
2023-01-09T04:49:36.603Z,97517.94
2023-01-09T04:52:03.994Z,97511.97
2023-01-09T04:54:32.235Z,97502.75
2023-01-09T04:56:59.191Z,97509.16
2023-01-09T04:59:26.044Z,97503.75
2023-01-09T05:01:54.384Z,97507.09
2023-01-09T05:04:21.739Z,97501.44
2023-01-09T05:06:49.041Z,97509.06
2023-01-09T05:09:16.464Z,97495.72
2023-01-09T05:11:43.490Z,97497.38
2023-01-09T05:14:10.486Z,97500.34
2023-01-09T05:16:37.976Z,97500.19
2023-01-09T05:19:05.191Z,97488.72
2023-01-09T05:21:32.238Z,97494.22
2023-01-09T05:23:59.204Z,97492.09
2023-01-09T05:26:26.102Z,97494.34
2023-01-09T05:28:52.964Z,97492.69
2023-01-09T05:31:19.967Z,97489.09
2023-01-09T05:33:46.793Z,97488.56
2023-01-09T05:36:14.091Z,97490.88
2023-01-09T05:38:41.154Z,97497.63
2023-01-09T05:41:09.883Z,97487.53
2023-01-09T05:43:36.710Z,97487.19
2023-01-09T05:46:03.654Z,97479.72
2023-01-09T05:48:30.707Z,97477.84
2023-01-09T05:50:57.481Z,97481.03
2023-01-09T05:53:24.436Z,97466.19
2023-01-09T05:55:51.903Z,97472.25
2023-01-09T05:58:18.729Z,97474.59
2023-01-09T06:00:45.618Z,97472.81
2023-01-09T06:03:12.901Z,97473.75
2023-01-09T06:05:39.765Z,97469.94
2023-01-09T06:08:06.925Z,97469.19
2023-01-09T06:10:33.909Z,97477.94
2023-01-09T06:13:01.004Z,97475.44
2023-01-09T06:15:27.860Z,97473.38
2023-01-09T06:17:54.896Z,97475.78
2023-01-09T06:20:22.134Z,97476.47
2023-01-09T06:22:49.555Z,97474.69
2023-01-09T06:25:16.654Z,97483.63
2023-01-09T06:27:43.604Z,97489.28
2023-01-09T06:30:10.637Z,97487.22
2023-01-09T06:32:37.410Z,97499.19
2023-01-09T06:35:04.801Z,97497.84
2023-01-09T06:37:31.665Z,97495.97
2023-01-09T06:39:58.823Z,97495.34
2023-01-09T06:42:25.950Z,97489.06
2023-01-09T06:44:53.096Z,97492.34
2023-01-09T06:47:22.254Z,97501.59
2023-01-09T06:49:49.282Z,97497.84
2023-01-09T06:52:16.363Z,97500.28
2023-01-09T06:54:43.198Z,97502.78
2023-01-09T06:57:10.041Z,97505.13
2023-01-09T06:59:37.021Z,97501.03
2023-01-09T07:02:04.158Z,97506.91
2023-01-09T07:04:31.468Z,97517.31
2023-01-09T07:06:58.701Z,97527.72
2023-01-09T07:09:25.509Z,97544.44
2023-01-09T07:11:53.194Z,97534.06
2023-01-09T07:14:20.098Z,97530.53
2023-01-09T07:16:47.000Z,97538.56
2023-01-09T07:19:13.956Z,97531.72
2023-01-09T07:21:40.795Z,97526.41
2023-01-09T07:24:07.722Z,97537.03
2023-01-09T07:26:34.604Z,97543.75
2023-01-09T07:29:01.741Z,97556.09
2023-01-09T07:31:28.641Z,97554.63
2023-01-09T07:33:55.525Z,97563.00
2023-01-09T07:36:22.335Z,97564.50
2023-01-09T07:38:49.381Z,97560.94
2023-01-09T07:41:16.196Z,97568.50
2023-01-09T07:43:44.463Z,97579.97
2023-01-09T07:46:12.391Z,97582.22
2023-01-09T07:48:39.257Z,97600.44
2023-01-09T07:51:06.561Z,97617.63
2023-01-09T07:53:33.615Z,97626.56
2023-01-09T07:56:00.820Z,97636.78
2023-01-09T07:58:27.672Z,97641.66
2023-01-09T08:00:54.620Z,97644.16
2023-01-09T08:03:21.363Z,97663.88
2023-01-09T08:05:51.118Z,97673.72
2023-01-09T08:08:18.305Z,97656.41
2023-01-09T08:10:45.357Z,97656.59
2023-01-09T08:13:12.198Z,97678.78
2023-01-09T08:15:39.341Z,97673.72
2023-01-09T08:18:06.207Z,97681.13
2023-01-09T08:20:33.275Z,97688.84
2023-01-09T08:23:01.236Z,97696.38
2023-01-09T08:25:28.159Z,97699.16
2023-01-09T08:27:55.092Z,97700.78
2023-01-09T08:30:21.893Z,97704.63
2023-01-09T08:32:48.802Z,97710.94
2023-01-09T08:35:17.231Z,97718.03
2023-01-09T08:37:46.327Z,97719.63
2023-01-09T08:40:13.220Z,97719.47
2023-01-09T08:42:40.274Z,97719.13
2023-01-09T08:45:07.561Z,97722.09
2023-01-09T08:47:36.365Z,97719.09
2023-01-09T08:50:03.377Z,97718.13
2023-01-09T08:52:31.006Z,97722.19
2023-01-09T08:54:58.137Z,97726.00
2023-01-09T08:57:25.086Z,97719.63
2023-01-09T08:59:51.870Z,97729.25
2023-01-09T09:02:18.731Z,97735.94
2023-01-09T09:04:45.546Z,97739.31
2023-01-09T09:07:16.692Z,97737.06
2023-01-09T09:09:43.503Z,97741.75
2023-01-09T09:12:10.927Z,97754.56
2023-01-09T09:14:37.959Z,97751.97
2023-01-09T09:17:04.900Z,97745.50
2023-01-09T09:19:31.843Z,97752.50
2023-01-09T09:21:59.637Z,97760.91
2023-01-09T09:24:27.050Z,97760.44
2023-01-09T09:26:53.917Z,97763.72
2023-01-09T09:29:20.908Z,97766.03
2023-01-09T09:31:48.101Z,97774.09
2023-01-09T09:34:14.972Z,97775.13
2023-01-09T09:36:41.905Z,97783.03
2023-01-09T09:39:08.856Z,97776.00
2023-01-09T09:41:35.938Z,97775.41
2023-01-09T09:44:02.776Z,97769.84
2023-01-09T09:46:29.672Z,97766.31
2023-01-09T09:48:56.803Z,97768.03
2023-01-09T09:51:23.821Z,97787.69
2023-01-09T09:53:51.074Z,97794.66
2023-01-09T09:56:17.911Z,97790.94
2023-01-09T09:58:45.283Z,97785.53
2023-01-09T10:01:12.114Z,97783.88
2023-01-09T10:03:41.590Z,97774.31
2023-01-09T10:06:08.518Z,97778.72
2023-01-09T10:08:35.660Z,97785.47
2023-01-09T10:11:02.482Z,97789.31
2023-01-09T10:13:31.247Z,97797.81
2023-01-09T10:15:59.430Z,97785.59
2023-01-09T10:18:26.983Z,97779.03
2023-01-09T10:20:53.957Z,97774.53
2023-01-09T10:23:22.041Z,97796.81
2023-01-09T10:25:48.847Z,97777.50
2023-01-09T10:28:16.302Z,97767.63
2023-01-09T10:30:43.464Z,97771.84
2023-01-09T10:33:10.748Z,97755.06
2023-01-09T10:35:47.276Z,97747.13
2023-01-09T10:38:14.650Z,97742.97
2023-01-09T10:40:41.655Z,97802.03
2023-01-09T10:43:08.557Z,97735.03
2023-01-09T10:45:36.025Z,97726.28
2023-01-09T10:48:04.002Z,97754.03
2023-01-09T10:50:30.893Z,97737.88
2023-01-09T10:52:57.707Z,97756.75
2023-01-09T10:55:24.580Z,97718.38
2023-01-09T10:57:52.074Z,97717.63
2023-01-09T11:00:19.524Z,97711.94
2023-01-09T11:02:47.841Z,97734.09
2023-01-09T11:05:15.040Z,97716.16
2023-01-09T11:07:41.915Z,97725.31
2023-01-09T11:10:08.705Z,97714.13
2023-01-09T11:12:35.650Z,97725.47
2023-01-09T11:15:02.515Z,97716.78
2023-01-09T11:17:29.456Z,97696.72
2023-01-09T11:19:56.335Z,97711.88
2023-01-09T11:22:23.245Z,97730.09
2023-01-09T11:24:50.102Z,97727.13
2023-01-09T11:27:17.070Z,97731.84
2023-01-09T11:29:43.949Z,97714.88
2023-01-09T11:32:11.125Z,97710.84
2023-01-09T11:34:37.917Z,97715.28
2023-01-09T11:37:04.884Z,97739.41
2023-01-09T11:39:32.029Z,97749.75
2023-01-09T11:41:59.169Z,97763.97
2023-01-09T11:44:26.006Z,97749.31
2023-01-09T11:46:52.864Z,97742.25
2023-01-09T11:49:20.095Z,97756.06
2023-01-09T11:51:47.017Z,97748.16
2023-01-09T11:54:17.097Z,97754.91
2023-01-09T11:56:43.918Z,97755.25
2023-01-09T11:59:10.899Z,97773.56
2023-01-09T12:01:37.742Z,97772.50
2023-01-09T12:04:05.575Z,97777.13
2023-01-09T12:06:32.467Z,97769.97
2023-01-09T12:08:59.356Z,97761.63
2023-01-09T12:11:26.380Z,97763.81
2023-01-09T12:13:53.690Z,97766.91
2023-01-09T12:16:20.612Z,97775.38
2023-01-09T12:18:48.218Z,97776.94
2023-01-09T12:21:16.478Z,97766.69
2023-01-09T12:23:44.606Z,97774.75
2023-01-09T12:26:11.487Z,97772.56
2023-01-09T12:28:38.278Z,97765.09
2023-01-09T12:31:05.067Z,97762.13
2023-01-09T12:33:32.280Z,97761.94
2023-01-09T12:35:59.168Z,97756.75
2023-01-09T12:38:26.094Z,97758.72
2023-01-09T12:40:53.056Z,97775.59
2023-01-09T12:43:20.075Z,97763.22
2023-01-09T12:45:47.141Z,97776.13
2023-01-09T12:48:14.133Z,97789.41
2023-01-09T12:50:40.926Z,97793.00
2023-01-09T12:53:07.967Z,97788.63
2023-01-09T12:55:34.865Z,97802.09
2023-01-09T12:58:01.777Z,97792.28
2023-01-09T13:00:28.745Z,97782.00
2023-01-09T13:03:03.775Z,97786.97
2023-01-09T13:05:38.448Z,97783.19
2023-01-09T13:08:05.279Z,97790.72
2023-01-09T13:10:32.244Z,97788.06
2023-01-09T13:12:59.149Z,97781.56
2023-01-09T13:15:25.990Z,97779.38
2023-01-09T13:17:52.984Z,97779.47
2023-01-09T13:20:19.831Z,97781.91
2023-01-09T13:22:46.627Z,97782.59
2023-01-09T13:25:13.673Z,97788.84
2023-01-09T13:27:40.529Z,97795.94
2023-01-09T13:30:08.463Z,97799.19
2023-01-09T13:32:36.253Z,97797.59
2023-01-09T13:35:03.251Z,97799.72
2023-01-09T13:37:30.102Z,97796.19
2023-01-09T13:39:58.231Z,97793.19
2023-01-09T13:42:25.033Z,97806.72
2023-01-09T13:44:52.098Z,97806.84
2023-01-09T13:47:19.113Z,97804.44
2023-01-09T13:49:45.868Z,97813.59
2023-01-09T13:52:12.788Z,97815.91
2023-01-09T13:54:39.730Z,97807.00
2023-01-09T13:57:06.677Z,97817.56
2023-01-09T13:59:35.623Z,97819.41
2023-01-09T14:02:03.320Z,97814.84
2023-01-09T14:04:30.492Z,97822.03
2023-01-09T14:06:57.664Z,97832.94
2023-01-09T14:09:24.637Z,97839.75
2023-01-09T14:11:53.918Z,97839.81
2023-01-09T14:14:21.181Z,97837.94
2023-01-09T14:16:48.230Z,97838.22
2023-01-09T14:19:15.256Z,97856.41
2023-01-09T14:21:42.074Z,97849.41
2023-01-09T14:24:09.195Z,97837.75
2023-01-09T14:26:36.281Z,97840.22
2023-01-09T14:29:03.129Z,97840.69
2023-01-09T14:31:30.134Z,97840.75
2023-01-09T14:34:05.748Z,97850.13
2023-01-09T14:36:38.041Z,97856.25
2023-01-09T14:39:04.944Z,97855.16
2023-01-09T14:41:32.298Z,97852.50
2023-01-09T14:43:59.235Z,97855.88
2023-01-09T14:46:26.182Z,97874.66
2023-01-09T14:48:52.951Z,97859.44
2023-01-09T14:51:19.836Z,97862.91
2023-01-09T14:53:47.628Z,97867.97
2023-01-09T14:56:14.986Z,97871.38
2023-01-09T14:58:42.055Z,97873.31
2023-01-09T15:01:08.937Z,97875.34
2023-01-09T15:03:36.041Z,97883.16
2023-01-09T15:06:03.351Z,97882.63
2023-01-09T15:08:30.583Z,97885.97
2023-01-09T15:10:57.562Z,97887.72
2023-01-09T15:13:24.471Z,97905.59
2023-01-09T15:15:51.413Z,97889.81
2023-01-09T15:18:18.532Z,97896.44
2023-01-09T15:20:46.041Z,97898.50
2023-01-09T15:23:13.353Z,97899.03
2023-01-09T15:25:40.937Z,97888.09
2023-01-09T15:28:07.879Z,97899.22
2023-01-09T15:30:37.126Z,97897.66
2023-01-09T15:33:03.977Z,97905.72
2023-01-09T15:35:30.822Z,97903.38
2023-01-09T15:37:57.717Z,97896.44
2023-01-09T15:40:24.959Z,97896.63
2023-01-09T15:42:52.090Z,97893.75
2023-01-09T15:45:18.917Z,97897.88
2023-01-09T15:47:46.103Z,97894.66
2023-01-09T15:50:13.371Z,97905.97
2023-01-09T15:52:40.519Z,97899.16
2023-01-09T15:55:07.335Z,97908.59
2023-01-09T15:57:34.231Z,97911.31
2023-01-09T16:00:01.320Z,97919.00
2023-01-09T16:02:28.160Z,97906.06
2023-01-09T16:04:55.476Z,97898.81
2023-01-09T16:07:22.305Z,97898.31
2023-01-09T16:09:49.222Z,97902.41
2023-01-09T16:12:16.030Z,97893.31
2023-01-09T16:14:43.109Z,97892.66
2023-01-09T16:17:10.240Z,97892.53
2023-01-09T16:19:37.105Z,97900.41
2023-01-09T16:22:03.910Z,97898.97
2023-01-09T16:24:30.788Z,97895.22
2023-01-09T16:26:57.708Z,97900.88
2023-01-09T16:29:24.834Z,97906.94
2023-01-09T16:31:51.788Z,97893.22
2023-01-09T16:34:18.742Z,97897.88
2023-01-09T16:36:45.905Z,97896.59
2023-01-09T16:39:13.176Z,97900.56
2023-01-09T16:41:40.558Z,97892.06
2023-01-09T16:44:07.412Z,97894.63
2023-01-09T16:46:34.260Z,97887.34
2023-01-09T16:49:01.232Z,97895.94
2023-01-09T16:51:28.009Z,97897.13
2023-01-09T16:53:54.834Z,97891.66
2023-01-09T16:56:21.703Z,97899.53
2023-01-09T16:58:48.546Z,97897.06
2023-01-09T17:01:15.855Z,97909.47
2023-01-09T17:03:44.002Z,97901.72
2023-01-09T17:06:11.532Z,97899.88
2023-01-09T17:08:38.378Z,97901.22
2023-01-09T17:11:05.213Z,97909.44
2023-01-09T17:13:32.246Z,97894.97
2023-01-09T17:15:59.028Z,97903.00
2023-01-09T17:18:25.919Z,97907.41
2023-01-09T17:20:52.846Z,97907.78
2023-01-09T17:23:19.846Z,97920.69
2023-01-09T17:25:46.643Z,97915.19
2023-01-09T17:28:13.815Z,97912.06
2023-01-09T17:30:40.651Z,97926.69
2023-01-09T17:33:07.543Z,97921.25
2023-01-09T17:35:34.359Z,97924.25
2023-01-09T17:38:01.205Z,97933.25
2023-01-09T17:40:28.144Z,97932.31
2023-01-09T17:42:55.500Z,97929.69
2023-01-09T17:45:22.366Z,97926.31
2023-01-09T17:47:49.202Z,97922.75
2023-01-09T17:50:16.253Z,97926.66
2023-01-09T17:52:43.230Z,97933.34
2023-01-09T17:55:10.046Z,97942.97
2023-01-09T17:57:36.947Z,97932.31
2023-01-09T18:00:03.960Z,97934.75
2023-01-09T18:02:31.128Z,97938.13
2023-01-09T18:04:58.070Z,97941.75
2023-01-09T18:07:25.062Z,97932.66
2023-01-09T18:09:51.879Z,97933.63
2023-01-09T18:12:18.845Z,97937.00
2023-01-09T18:14:47.387Z,97932.25
2023-01-09T18:17:14.778Z,97934.75
2023-01-09T18:19:42.083Z,97937.69
2023-01-09T18:22:09.047Z,97939.09
2023-01-09T18:24:36.337Z,97938.13
2023-01-09T18:27:04.311Z,97942.25
2023-01-09T18:29:31.543Z,97938.34
2023-01-09T18:31:58.500Z,97937.72
2023-01-09T18:34:28.662Z,97943.28
2023-01-09T18:36:56.283Z,97945.63
2023-01-09T18:39:23.593Z,97945.31
2023-01-09T18:41:51.696Z,97946.81
2023-01-09T18:44:18.757Z,97944.06
2023-01-09T18:46:46.863Z,97948.97
2023-01-09T18:49:17.689Z,97948.50
2023-01-09T18:51:44.686Z,97965.53
2023-01-09T18:54:12.088Z,97966.66
2023-01-09T18:56:39.905Z,97956.00
2023-01-09T18:59:06.746Z,97958.53
2023-01-09T19:01:34.085Z,97961.63
2023-01-09T19:04:01.330Z,97969.84
2023-01-09T19:06:28.578Z,97979.53
2023-01-09T19:08:56.472Z,97984.91
2023-01-09T19:11:24.497Z,97981.16
2023-01-09T19:13:51.831Z,97983.00
2023-01-09T19:16:18.880Z,97984.34
2023-01-09T19:18:47.031Z,97983.13
2023-01-09T19:21:14.557Z,97981.53
2023-01-09T19:23:42.263Z,97980.47
2023-01-09T19:26:10.692Z,97975.22
2023-01-09T19:28:39.605Z,97983.97
2023-01-09T19:31:06.664Z,97978.44
2023-01-09T19:33:34.400Z,97986.38
2023-01-09T19:36:03.424Z,97980.69
2023-01-09T19:38:31.618Z,97983.63
2023-01-09T19:40:58.682Z,97977.59
2023-01-09T19:43:26.188Z,97979.66
2023-01-09T19:45:54.213Z,97970.78
2023-01-09T19:48:21.691Z,97974.94
2023-01-09T19:50:49.266Z,97975.53
2023-01-09T19:53:16.165Z,97976.19
2023-01-09T19:55:43.409Z,97973.34
2023-01-09T19:58:11.469Z,97968.78
2023-01-09T20:00:38.415Z,97970.72
2023-01-09T20:03:06.152Z,97971.69
2023-01-09T20:05:33.206Z,97971.66
2023-01-09T20:08:00.097Z,97984.75
2023-01-09T20:10:27.463Z,97982.31
2023-01-09T20:12:54.372Z,97981.38
2023-01-09T20:15:22.792Z,97986.56
2023-01-09T20:17:49.828Z,97986.88
2023-01-09T20:22:43.669Z,98000.88
2023-01-09T20:25:10.998Z,98002.28
2023-01-09T20:27:38.226Z,98002.84
2023-01-09T20:30:05.135Z,98000.00
2023-01-09T20:32:34.081Z,98007.78
2023-01-09T20:35:01.031Z,98008.97
2023-01-09T20:37:27.864Z,98011.41
2023-01-09T20:39:54.785Z,98011.59
2023-01-09T20:42:21.973Z,98016.84
2023-01-09T20:44:48.866Z,98019.75
2023-01-09T20:47:17.376Z,98014.53
2023-01-09T20:49:45.621Z,98017.28
2023-01-09T20:52:12.474Z,98021.63
2023-01-09T20:54:39.422Z,98010.38
2023-01-09T20:57:07.735Z,98014.25
2023-01-09T20:59:36.502Z,98014.16
2023-01-09T21:02:03.313Z,98010.13
2023-01-09T21:04:30.636Z,98009.06
2023-01-09T21:06:58.123Z,98009.66
2023-01-09T21:09:24.931Z,98016.41
2023-01-09T21:11:51.983Z,98023.31
2023-01-09T21:14:18.810Z,98018.34
2023-01-09T21:16:54.049Z,98018.41
2023-01-09T21:19:21.650Z,98022.94
2023-01-09T21:21:48.937Z,98026.00
2023-01-09T21:24:16.692Z,98026.44
2023-01-09T21:26:43.535Z,98015.28
2023-01-09T21:29:12.680Z,98022.28
2023-01-09T21:31:39.753Z,98020.00
2023-01-09T21:34:06.644Z,98041.28
2023-01-09T21:36:34.736Z,98040.88
2023-01-09T21:39:02.118Z,98033.50
2023-01-09T21:41:29.227Z,98045.84
2023-01-09T21:43:56.143Z,98044.91
2023-01-09T21:46:23.101Z,98053.69
2023-01-09T21:48:50.135Z,98047.00
2023-01-09T21:51:17.220Z,98043.31
2023-01-09T21:53:44.293Z,98052.88
2023-01-09T21:56:11.428Z,98056.31
2023-01-09T21:58:38.429Z,98047.38
2023-01-09T22:01:05.347Z,98055.53
2023-01-09T22:03:32.531Z,98052.41
2023-01-09T22:05:59.405Z,98060.25
2023-01-09T22:08:27.233Z,98059.81
2023-01-09T22:10:54.116Z,98050.97
2023-01-09T22:13:21.029Z,98052.34
2023-01-09T22:15:47.943Z,98050.84
2023-01-09T22:18:15.747Z,98054.06
2023-01-09T22:20:42.594Z,98061.44
2023-01-09T22:23:11.829Z,98064.91
2023-01-09T22:25:38.544Z,98056.41
2023-01-09T22:28:05.360Z,98058.16
2023-01-09T22:30:32.471Z,98055.59
2023-01-09T22:32:59.318Z,98062.47
2023-01-09T22:35:26.104Z,98055.13
2023-01-09T22:37:52.972Z,98044.91
2023-01-09T22:40:19.805Z,98056.47
2023-01-09T22:42:46.697Z,98055.81
2023-01-09T22:45:13.560Z,98066.47
2023-01-09T22:47:40.825Z,98065.47
2023-01-09T22:50:07.649Z,98067.00
2023-01-09T22:52:34.826Z,98059.84
2023-01-09T22:55:01.859Z,98062.97
2023-01-09T22:57:28.705Z,98059.75
2023-01-09T22:59:57.666Z,98061.44
2023-01-09T23:02:24.710Z,98060.78
2023-01-09T23:04:51.747Z,98055.25
2023-01-09T23:07:19.794Z,98070.38
2023-01-09T23:09:46.601Z,98064.72
2023-01-09T23:12:13.423Z,98057.53
2023-01-09T23:14:40.218Z,98061.81
2023-01-09T23:17:07.232Z,98057.91
2023-01-09T23:19:34.037Z,98080.78
2023-01-09T23:22:01.004Z,98078.31
2023-01-09T23:24:27.856Z,98077.22
2023-01-09T23:26:54.843Z,98077.19
2023-01-09T23:29:21.728Z,98070.63
2023-01-09T23:31:48.591Z,98072.19
2023-01-09T23:34:15.493Z,98074.00
2023-01-09T23:36:42.383Z,98079.66
2023-01-09T23:39:09.328Z,98076.47
2023-01-09T23:41:38.213Z,98073.66
2023-01-09T23:44:05.404Z,98079.91
2023-01-09T23:46:32.630Z,98072.72
2023-01-09T23:48:59.422Z,98080.41
2023-01-09T23:51:26.542Z,98072.94
2023-01-09T23:53:53.467Z,98089.63
2023-01-09T23:56:20.309Z,98068.19
2023-01-09T23:58:47.310Z,98088.44
